createdAt,value
2023-01-25T00:02:20.430Z,43.22
2023-01-25T00:04:49.489Z,40.33
2023-01-25T00:07:17.171Z,48.28
2023-01-25T00:09:44.808Z,48.95
2023-01-25T00:12:12.436Z,49.28
2023-01-25T00:14:40.096Z,43.40
2023-01-25T00:17:07.771Z,47.22
2023-01-25T00:19:35.480Z,50.15
2023-01-25T00:22:04.482Z,49.72
2023-01-25T00:24:32.129Z,50.85
2023-01-25T00:26:59.892Z,45.67
2023-01-25T00:29:27.578Z,44.58
2023-01-25T00:32:03.326Z,43.72
2023-01-25T00:34:47.632Z,43.65
2023-01-25T00:37:24.772Z,40.63
2023-01-25T00:39:52.500Z,39.83
2023-01-25T00:42:21.237Z,42.85
2023-01-25T00:44:49.750Z,45.25
2023-01-25T00:47:17.736Z,44.53
2023-01-25T00:49:46.506Z,45.90
2023-01-25T00:52:14.568Z,50.15
2023-01-25T00:54:43.652Z,50.58
2023-01-25T00:57:11.524Z,56.42
2023-01-25T00:59:39.169Z,51.47
2023-01-25T01:02:06.887Z,56.90
2023-01-25T01:04:34.589Z,46.83
2023-01-25T01:07:02.337Z,42.45
2023-01-25T01:09:30.171Z,50.45
2023-01-25T01:11:59.211Z,46.83
2023-01-25T01:14:29.797Z,51.83
2023-01-25T01:16:58.133Z,54.72
2023-01-25T01:19:26.012Z,51.17
2023-01-25T01:21:53.727Z,50.83
2023-01-25T01:24:21.456Z,54.95
2023-01-25T01:26:49.148Z,53.38
2023-01-25T01:29:18.108Z,51.30
2023-01-25T01:31:45.817Z,54.97
2023-01-25T01:34:15.066Z,48.55
2023-01-25T01:36:42.774Z,56.47
2023-01-25T01:39:10.559Z,66.28
2023-01-25T01:41:38.732Z,48.50
2023-01-25T01:44:06.658Z,56.30
2023-01-25T01:46:37.594Z,58.53
2023-01-25T01:49:11.499Z,58.17
2023-01-25T01:51:49.623Z,56.05
2023-01-25T01:54:24.070Z,60.40
2023-01-25T01:56:56.727Z,58.47
2023-01-25T01:59:29.316Z,55.65
2023-01-25T02:01:58.366Z,51.58
2023-01-25T02:04:28.665Z,53.25
2023-01-25T02:07:01.928Z,57.88
2023-01-25T02:09:30.706Z,52.55
2023-01-25T02:12:00.040Z,54.05
2023-01-25T02:14:30.179Z,67.68
2023-01-25T02:16:59.511Z,48.58
2023-01-25T02:19:39.354Z,45.88
2023-01-25T02:22:13.348Z,50.70
2023-01-25T02:24:46.733Z,56.13
2023-01-25T02:27:15.698Z,54.72
2023-01-25T02:29:47.632Z,54.88
2023-01-25T02:32:15.306Z,57.72
2023-01-25T02:34:45.668Z,55.60
2023-01-25T02:37:15.515Z,57.17
2023-01-25T02:39:43.625Z,55.08
2023-01-25T02:42:11.301Z,56.50
2023-01-25T02:44:40.384Z,66.68
2023-01-25T02:47:07.984Z,48.90
2023-01-25T02:49:36.664Z,55.10
2023-01-25T02:52:06.264Z,51.35
2023-01-25T02:54:33.954Z,51.00
2023-01-25T02:57:01.664Z,46.03
2023-01-25T02:59:29.329Z,51.40
2023-01-25T03:01:58.898Z,47.22
2023-01-25T03:04:26.598Z,48.33
2023-01-25T03:06:54.278Z,48.58
2023-01-25T03:09:21.911Z,50.88
2023-01-25T03:11:51.565Z,48.85
2023-01-25T03:14:19.203Z,44.50
2023-01-25T03:16:46.875Z,46.03
2023-01-25T03:19:15.887Z,49.47
2023-01-25T03:21:43.507Z,45.63
2023-01-25T03:24:12.116Z,49.47
2023-01-25T03:26:57.036Z,38.38
2023-01-25T03:29:24.788Z,44.53
2023-01-25T03:31:53.031Z,46.90
2023-01-25T03:34:22.176Z,35.90
2023-01-25T03:36:51.468Z,38.25
2023-01-25T03:39:25.987Z,42.20
2023-01-25T03:41:53.641Z,34.87
2023-01-25T03:44:21.254Z,40.47
2023-01-25T03:46:50.913Z,40.28
2023-01-25T03:49:24.573Z,37.92
2023-01-25T03:51:53.644Z,43.63
2023-01-25T03:54:21.358Z,38.00
2023-01-25T03:56:49.027Z,38.78
2023-01-25T03:59:16.707Z,37.10
2023-01-25T04:01:44.375Z,34.78
2023-01-25T04:04:12.515Z,34.30
2023-01-25T04:06:40.211Z,38.75
2023-01-25T04:09:09.621Z,33.17
2023-01-25T04:11:37.293Z,33.55
2023-01-25T04:14:04.965Z,34.75
2023-01-25T04:16:32.647Z,34.08
2023-01-25T04:19:00.276Z,37.53
2023-01-25T04:21:28.000Z,32.13
2023-01-25T04:23:55.788Z,33.00
2023-01-25T04:26:25.368Z,37.15
2023-01-25T04:28:55.775Z,32.20
2023-01-25T04:31:23.498Z,40.25
2023-01-25T04:33:51.460Z,36.28
2023-01-25T04:36:19.157Z,38.70
2023-01-25T04:38:46.811Z,45.10
2023-01-25T04:41:14.467Z,48.65
2023-01-25T04:43:49.119Z,52.85
2023-01-25T04:46:19.650Z,39.67
2023-01-25T04:48:47.453Z,39.85
2023-01-25T04:51:18.242Z,57.47
2023-01-25T04:53:48.991Z,46.45
2023-01-25T04:56:16.635Z,40.72
2023-01-25T04:58:44.466Z,43.20
2023-01-25T05:01:13.825Z,39.03
2023-01-25T05:03:41.567Z,41.05
2023-01-25T05:06:09.319Z,40.88
2023-01-25T05:08:39.776Z,37.47
2023-01-25T05:11:10.345Z,49.70
2023-01-25T05:13:38.064Z,35.55
2023-01-25T05:16:09.823Z,38.42
2023-01-25T05:18:47.946Z,41.13
2023-01-25T05:21:30.626Z,39.17
2023-01-25T05:23:58.480Z,34.75
2023-01-25T05:26:45.111Z,37.30
2023-01-25T05:29:12.946Z,30.45
2023-01-25T05:31:40.728Z,34.30
2023-01-25T05:34:10.741Z,34.92
2023-01-25T05:36:41.111Z,34.22
2023-01-25T05:39:09.109Z,36.25
2023-01-25T05:41:36.957Z,34.13
2023-01-25T05:44:05.420Z,31.55
2023-01-25T05:46:33.062Z,32.17
2023-01-25T05:49:00.719Z,32.35
2023-01-25T05:51:29.731Z,30.52
2023-01-25T05:53:57.568Z,33.28
2023-01-25T05:56:25.575Z,33.85
2023-01-25T05:58:56.470Z,29.65
2023-01-25T06:01:25.121Z,30.90
2023-01-25T06:03:52.969Z,37.42
2023-01-25T06:06:21.421Z,33.78
2023-01-25T06:08:50.933Z,33.97
2023-01-25T06:11:20.690Z,38.88
2023-01-25T06:13:48.920Z,30.17
2023-01-25T06:16:17.054Z,37.25
2023-01-25T06:18:48.147Z,32.95
2023-01-25T06:21:18.771Z,36.58
2023-01-25T06:23:46.580Z,38.97
2023-01-25T06:26:16.491Z,38.05
2023-01-25T06:28:44.390Z,37.67
2023-01-25T06:31:15.077Z,39.88
2023-01-25T06:33:49.143Z,36.70
2023-01-25T06:36:20.429Z,39.03
2023-01-25T06:38:51.006Z,38.08
2023-01-25T06:41:21.787Z,35.60
2023-01-25T06:43:52.215Z,39.72
2023-01-25T06:46:21.086Z,34.38
2023-01-25T06:48:50.184Z,36.10
2023-01-25T06:51:18.033Z,30.15
2023-01-25T06:53:47.301Z,36.38
2023-01-25T06:56:19.308Z,30.50
2023-01-25T06:58:49.253Z,31.73
2023-01-25T07:01:19.809Z,28.75
2023-01-25T07:03:49.589Z,28.88
2023-01-25T07:06:17.358Z,26.00
2023-01-25T07:08:45.083Z,31.05
2023-01-25T07:11:14.147Z,31.45
2023-01-25T07:13:43.075Z,26.08
2023-01-25T07:16:14.997Z,33.15
2023-01-25T07:18:43.188Z,27.05
2023-01-25T07:21:13.804Z,29.38
2023-01-25T07:23:41.833Z,26.35
2023-01-25T07:26:18.894Z,32.05
2023-01-25T07:28:49.561Z,28.08
2023-01-25T07:31:19.693Z,28.95
2023-01-25T07:33:49.619Z,29.92
2023-01-25T07:36:17.789Z,29.48
2023-01-25T07:38:45.529Z,30.25
2023-01-25T07:41:13.294Z,29.73
2023-01-25T07:43:41.033Z,31.23
2023-01-25T07:46:11.269Z,26.33
2023-01-25T07:48:41.666Z,31.13
2023-01-25T07:51:22.582Z,28.33
2023-01-25T07:53:52.306Z,25.42
2023-01-25T07:56:21.318Z,28.38
2023-01-25T07:58:49.758Z,30.80
2023-01-25T08:01:19.885Z,28.75
2023-01-25T08:03:49.652Z,23.67
2023-01-25T08:06:18.565Z,25.00
2023-01-25T08:08:49.623Z,26.13
2023-01-25T08:11:21.596Z,27.10
2023-01-25T08:13:50.006Z,27.85
2023-01-25T08:16:20.027Z,25.75
2023-01-25T08:18:50.408Z,25.73
2023-01-25T08:21:21.498Z,23.17
2023-01-25T08:23:49.204Z,25.77
2023-01-25T08:26:18.264Z,53.17
2023-01-25T08:28:46.291Z,22.88
2023-01-25T08:31:16.580Z,21.60
2023-01-25T08:33:46.698Z,21.30
2023-01-25T08:36:16.642Z,23.73
2023-01-25T08:38:44.356Z,21.98
2023-01-25T08:41:14.283Z,22.42
2023-01-25T08:43:42.555Z,22.92
2023-01-25T08:46:10.371Z,31.13
2023-01-25T08:48:38.402Z,23.70
2023-01-25T08:51:08.732Z,43.38
2023-01-25T08:53:37.861Z,21.58
2023-01-25T08:56:06.876Z,24.67
2023-01-25T08:58:38.259Z,24.70
2023-01-25T09:01:08.859Z,22.35
2023-01-25T09:03:37.824Z,27.33
2023-01-25T09:06:06.072Z,29.42
2023-01-25T09:08:33.922Z,25.15
2023-01-25T09:11:03.816Z,22.00
2023-01-25T09:13:35.045Z,23.80
2023-01-25T09:16:04.125Z,23.52
2023-01-25T09:18:32.569Z,25.05
2023-01-25T09:21:00.303Z,24.52
2023-01-25T09:23:28.034Z,22.58
2023-01-25T09:25:59.145Z,25.63
2023-01-25T09:28:29.976Z,22.98
2023-01-25T09:31:18.742Z,25.60
2023-01-25T09:33:45.602Z,24.70
2023-01-25T09:36:14.915Z,24.05
2023-01-25T09:38:43.629Z,25.90
2023-01-25T09:41:23.021Z,24.35
2023-01-25T09:44:16.919Z,25.83
2023-01-25T09:46:48.945Z,25.42
2023-01-25T09:49:51.861Z,26.40
2023-01-25T09:52:35.875Z,26.77
2023-01-25T09:55:04.070Z,26.10
2023-01-25T09:57:35.640Z,26.67
2023-01-25T10:00:14.584Z,26.00
2023-01-25T10:02:51.416Z,26.90
2023-01-25T10:05:21.735Z,28.40
2023-01-25T10:07:58.361Z,24.65
2023-01-25T10:10:33.894Z,28.98
2023-01-25T10:13:03.049Z,24.45
2023-01-25T10:15:38.465Z,24.95
2023-01-25T10:20:48.737Z,22.48
2023-01-25T10:23:34.114Z,23.10
2023-01-25T10:26:05.937Z,20.23
2023-01-25T10:28:43.545Z,25.23
2023-01-25T10:31:19.501Z,26.58
2023-01-25T10:33:49.566Z,26.05
2023-01-25T10:36:21.460Z,25.98
2023-01-25T10:38:52.849Z,23.58
2023-01-25T10:41:27.038Z,25.42
2023-01-25T10:44:20.006Z,23.27
2023-01-25T10:46:57.360Z,25.95
2023-01-25T10:49:30.067Z,21.63
2023-01-25T10:51:57.824Z,21.63
2023-01-25T10:54:29.357Z,20.67
2023-01-25T10:57:00.399Z,19.65
2023-01-25T10:59:29.902Z,22.58
2023-01-25T11:02:40.559Z,19.67
2023-01-25T11:05:32.244Z,26.95
2023-01-25T11:08:16.023Z,22.58
2023-01-25T11:10:46.447Z,24.63
2023-01-25T11:13:26.420Z,22.30
2023-01-25T11:15:56.124Z,24.75
2023-01-25T11:18:28.502Z,23.60
2023-01-25T11:21:06.841Z,33.80
2023-01-25T11:23:35.558Z,26.40
2023-01-25T11:26:18.986Z,32.50
2023-01-25T11:28:49.092Z,27.42
2023-01-25T11:31:24.852Z,24.90
2023-01-25T11:33:54.045Z,25.58
2023-01-25T11:36:31.037Z,29.63
2023-01-25T11:39:17.124Z,22.95
2023-01-25T11:41:56.540Z,21.20
2023-01-25T11:44:47.016Z,24.92
2023-01-25T11:47:28.279Z,23.90
2023-01-25T11:50:06.519Z,25.00
2023-01-25T11:52:44.714Z,25.23
2023-01-25T11:55:22.968Z,27.65
2023-01-25T11:58:04.782Z,27.88
2023-01-25T12:01:01.812Z,27.75
2023-01-25T12:04:17.813Z,26.77
2023-01-25T12:06:58.549Z,28.85
2023-01-25T12:09:42.110Z,28.70
2023-01-25T12:12:32.295Z,28.13
2023-01-25T12:15:28.121Z,32.30
2023-01-25T12:18:15.733Z,28.42
2023-01-25T12:21:04.901Z,25.30
2023-01-25T12:23:47.893Z,29.73
2023-01-25T12:26:24.904Z,31.95
2023-01-25T12:29:01.108Z,31.48
2023-01-25T12:31:38.556Z,29.38
2023-01-25T12:34:12.727Z,28.70
2023-01-25T12:36:45.827Z,26.02
2023-01-25T12:39:19.395Z,25.35
2023-01-25T12:41:52.074Z,26.73
2023-01-25T12:44:22.438Z,24.25
2023-01-25T12:46:58.170Z,29.33
2023-01-25T12:49:31.845Z,27.88
2023-01-25T12:52:05.072Z,28.13
2023-01-25T12:54:39.610Z,31.63
2023-01-25T12:57:16.910Z,30.73
2023-01-25T12:59:52.891Z,31.48
2023-01-25T13:02:38.458Z,33.45
2023-01-25T13:05:20.006Z,32.03
2023-01-25T13:07:59.783Z,31.27
2023-01-25T13:10:34.638Z,34.58
2023-01-25T13:13:04.346Z,29.25
2023-01-25T13:15:40.088Z,33.90
2023-01-25T13:18:40.046Z,27.70
2023-01-25T13:21:12.428Z,31.52
2023-01-25T13:23:47.352Z,26.20
2023-01-25T13:26:48.460Z,27.00
2023-01-25T13:29:54.681Z,28.02
2023-01-25T13:32:55.457Z,25.60
2023-01-25T13:35:29.312Z,31.95
2023-01-25T13:38:03.693Z,30.73
2023-01-25T13:40:37.650Z,30.15
2023-01-25T13:43:19.255Z,30.05
2023-01-25T13:45:50.579Z,29.73
2023-01-25T13:48:21.492Z,29.23
2023-01-25T13:50:52.254Z,28.58
2023-01-25T13:53:22.579Z,31.55
2023-01-25T13:55:52.495Z,34.45
2023-01-25T13:58:28.477Z,30.15
2023-01-25T14:00:59.074Z,30.30
2023-01-25T14:03:30.162Z,35.00
2023-01-25T14:06:02.435Z,42.92
2023-01-25T14:08:31.317Z,44.92
2023-01-25T14:10:59.469Z,45.75
2023-01-25T14:13:28.602Z,48.78
2023-01-25T14:15:58.688Z,43.40
2023-01-25T14:18:33.638Z,45.53
2023-01-25T14:21:13.556Z,45.72
2023-01-25T14:23:41.341Z,48.92
2023-01-25T14:26:23.609Z,41.50
2023-01-25T14:29:01.483Z,46.38
2023-01-25T14:31:34.145Z,38.00
2023-01-25T14:34:04.199Z,52.38
2023-01-25T14:36:34.248Z,46.88
2023-01-25T14:39:04.771Z,42.95
2023-01-25T14:41:35.527Z,37.13
2023-01-25T14:44:10.638Z,39.88
2023-01-25T14:46:40.028Z,42.47
2023-01-25T14:49:09.814Z,41.75
2023-01-25T14:51:43.343Z,41.70
2023-01-25T14:54:18.839Z,39.20
2023-01-25T14:59:27.228Z,31.85
2023-01-25T15:01:57.503Z,34.38
2023-01-25T15:04:25.557Z,34.72
2023-01-25T15:06:57.432Z,32.42
2023-01-25T15:09:39.317Z,32.72
2023-01-25T15:12:27.138Z,35.03
2023-01-25T15:14:58.292Z,36.13
2023-01-25T15:17:44.442Z,32.97
2023-01-25T15:20:33.666Z,35.83
2023-01-25T15:23:05.001Z,30.13
2023-01-25T15:25:34.433Z,33.05
2023-01-25T15:28:02.698Z,37.65
2023-01-25T15:30:33.787Z,37.95
2023-01-25T15:33:03.087Z,37.75
2023-01-25T15:35:30.834Z,33.38
2023-01-25T15:38:00.401Z,38.70
2023-01-25T15:40:28.082Z,32.88
2023-01-25T15:42:55.743Z,32.30
2023-01-25T15:45:23.403Z,30.30
2023-01-25T15:47:52.496Z,29.33
2023-01-25T15:50:21.535Z,33.20
2023-01-25T15:52:49.260Z,33.08
2023-01-25T15:55:17.147Z,36.20
2023-01-25T15:57:46.833Z,52.75
2023-01-25T16:00:19.353Z,43.45
2023-01-25T16:02:47.160Z,28.80
2023-01-25T16:05:16.369Z,25.35
2023-01-25T16:07:46.759Z,27.88
2023-01-25T16:10:22.598Z,27.13
2023-01-25T16:12:51.262Z,33.75
2023-01-25T16:15:19.031Z,30.00
2023-01-25T16:17:46.711Z,25.98
2023-01-25T16:20:19.976Z,33.97
2023-01-25T16:22:48.520Z,29.73
2023-01-25T16:25:16.318Z,28.08
2023-01-25T16:27:43.985Z,30.90
2023-01-25T16:30:20.164Z,31.20
2023-01-25T16:32:51.388Z,26.25
2023-01-25T16:35:21.365Z,31.00
2023-01-25T16:37:50.783Z,29.30
2023-01-25T16:40:26.057Z,29.65
2023-01-25T16:42:55.789Z,29.42
2023-01-25T16:45:25.985Z,32.05
2023-01-25T16:47:56.186Z,31.15
2023-01-25T16:50:25.467Z,30.45
2023-01-25T16:52:54.804Z,27.92
2023-01-25T16:55:22.575Z,33.22
2023-01-25T16:57:52.032Z,35.75
2023-01-25T17:00:20.371Z,31.63
2023-01-25T17:02:58.678Z,38.30
2023-01-25T17:05:33.964Z,37.63
2023-01-25T17:08:01.767Z,33.72
2023-01-25T17:10:33.080Z,34.58
2023-01-25T17:13:00.826Z,35.42
2023-01-25T17:15:30.873Z,35.00
2023-01-25T17:17:58.570Z,37.53
2023-01-25T17:20:26.285Z,35.35
2023-01-25T17:22:57.874Z,35.45
2023-01-25T17:25:26.216Z,40.63
2023-01-25T17:27:53.913Z,35.22
2023-01-25T17:30:21.891Z,39.33
2023-01-25T17:32:49.849Z,37.78
2023-01-25T17:35:17.780Z,40.90
2023-01-25T17:37:45.473Z,39.42
2023-01-25T17:40:14.937Z,37.70
2023-01-25T17:42:42.646Z,35.20
2023-01-25T17:45:11.353Z,34.20
2023-01-25T17:47:39.479Z,39.17
2023-01-25T17:50:08.648Z,35.22
2023-01-25T17:52:36.443Z,42.33
2023-01-25T17:55:05.125Z,41.60
2023-01-25T17:57:36.728Z,38.65
2023-01-25T18:00:06.924Z,45.75
2023-01-25T18:02:34.645Z,45.70
2023-01-25T18:05:02.380Z,45.05
2023-01-25T18:07:30.181Z,41.83
2023-01-25T18:09:57.954Z,43.97
2023-01-25T18:12:25.723Z,40.83
2023-01-25T18:14:54.917Z,44.45
2023-01-25T18:17:22.682Z,45.40
2023-01-25T18:19:50.784Z,43.30
2023-01-25T18:22:18.745Z,41.70
2023-01-25T18:24:47.166Z,41.53
2023-01-25T18:27:20.265Z,46.42
2023-01-25T18:29:54.943Z,42.40
2023-01-25T18:32:24.250Z,42.50
2023-01-25T18:34:52.227Z,39.20
2023-01-25T18:37:21.769Z,44.10
2023-01-25T18:39:50.876Z,40.47
2023-01-25T18:42:19.362Z,40.17
2023-01-25T18:44:48.474Z,42.50
2023-01-25T18:47:18.510Z,41.15
2023-01-25T18:49:49.115Z,45.28
2023-01-25T18:52:17.266Z,45.78
2023-01-25T18:54:45.465Z,44.83
2023-01-25T18:57:13.370Z,45.72
2023-01-25T18:59:41.245Z,39.72
2023-01-25T19:02:10.840Z,41.65
2023-01-25T19:04:38.867Z,42.65
2023-01-25T19:07:17.809Z,43.78
2023-01-25T19:09:47.843Z,42.20
2023-01-25T19:12:15.564Z,40.30
2023-01-25T19:14:43.261Z,44.88
2023-01-25T19:17:10.976Z,47.03
2023-01-25T19:19:38.732Z,45.45
2023-01-25T19:22:06.859Z,49.53
2023-01-25T19:24:36.409Z,47.60
2023-01-25T19:27:06.374Z,53.05
2023-01-25T19:29:34.368Z,52.78
2023-01-25T19:32:02.246Z,49.65
2023-01-25T19:34:33.540Z,47.83
2023-01-25T19:37:01.291Z,51.22
2023-01-25T19:39:29.243Z,46.08
2023-01-25T19:41:58.301Z,36.58
2023-01-25T19:44:26.235Z,42.75
2023-01-25T19:46:53.974Z,38.65
2023-01-25T19:49:22.701Z,32.30
2023-01-25T19:51:55.833Z,36.13
2023-01-25T19:54:24.254Z,37.22
2023-01-25T19:56:52.170Z,33.63
2023-01-25T19:59:24.737Z,34.60
2023-01-25T20:01:52.786Z,36.45
2023-01-25T20:04:23.176Z,36.40
2023-01-25T20:06:51.650Z,39.30
2023-01-25T20:09:24.790Z,40.85
2023-01-25T20:11:56.392Z,33.30
2023-01-25T20:14:25.596Z,36.08
2023-01-25T20:16:53.715Z,33.08
2023-01-25T20:19:21.509Z,33.10
2023-01-25T20:21:49.309Z,32.90
2023-01-25T20:24:17.222Z,38.03
2023-01-25T20:26:45.510Z,33.85
2023-01-25T20:29:13.869Z,34.28
2023-01-25T20:31:44.612Z,37.42
2023-01-25T20:34:14.388Z,53.42
2023-01-25T20:36:43.017Z,39.15
2023-01-25T20:39:13.979Z,39.33
2023-01-25T20:41:42.386Z,39.67
2023-01-25T20:44:14.949Z,37.97
2023-01-25T20:46:44.413Z,36.42
2023-01-25T20:49:16.413Z,32.58
2023-01-25T20:51:44.353Z,43.80
2023-01-25T20:54:12.249Z,32.65
2023-01-25T20:56:40.387Z,39.78
2023-01-25T20:59:08.269Z,39.22
2023-01-25T21:01:37.078Z,35.15
2023-01-25T21:04:09.570Z,36.60
2023-01-25T21:06:38.653Z,32.20
2023-01-25T21:09:06.518Z,36.35
2023-01-25T21:11:34.602Z,34.10
2023-01-25T21:14:02.607Z,38.30
2023-01-25T21:16:30.591Z,31.98
2023-01-25T21:19:00.423Z,34.08
2023-01-25T21:21:31.297Z,36.50
2023-01-25T21:24:02.382Z,38.30
2023-01-25T21:26:31.923Z,38.42
2023-01-25T21:29:00.828Z,32.58
2023-01-25T21:31:30.800Z,36.40
2023-01-25T21:34:00.908Z,32.47
2023-01-25T21:36:30.246Z,34.17
2023-01-25T21:38:58.160Z,37.25
2023-01-25T21:41:29.080Z,44.92
2023-01-25T21:44:15.574Z,42.33
2023-01-25T21:46:49.245Z,42.47
2023-01-25T21:49:45.850Z,37.88
2023-01-25T21:52:14.977Z,43.25
2023-01-25T21:54:42.649Z,41.45
2023-01-25T21:57:11.597Z,41.28
2023-01-25T21:59:40.688Z,35.80
2023-01-25T22:02:16.407Z,41.17
2023-01-25T22:04:44.205Z,34.78
2023-01-25T22:07:12.461Z,33.45
2023-01-25T22:09:41.532Z,35.88
2023-01-25T22:12:09.296Z,36.78
2023-01-25T22:14:37.016Z,38.53
2023-01-25T22:17:05.030Z,41.13
2023-01-25T22:19:33.305Z,37.95
2023-01-25T22:22:01.116Z,40.17
2023-01-25T22:24:28.815Z,40.03
2023-01-25T22:27:24.460Z,40.97
2023-01-25T22:29:52.154Z,42.60
2023-01-25T22:32:19.990Z,43.65
2023-01-25T22:34:47.682Z,43.67
2023-01-25T22:37:15.440Z,41.10
2023-01-25T22:39:43.080Z,41.60
2023-01-25T22:42:12.143Z,40.88
2023-01-25T22:44:39.854Z,40.28
2023-01-25T22:47:07.600Z,36.38
2023-01-25T22:49:47.543Z,45.15
2023-01-25T22:52:15.253Z,41.53
2023-01-25T22:54:42.928Z,41.80
2023-01-25T23:01:45.769Z,40.78
2023-01-25T23:04:16.614Z,39.40
2023-01-25T23:06:44.385Z,47.60
2023-01-25T23:09:12.096Z,38.20
2023-01-25T23:11:39.781Z,43.33
2023-01-25T23:14:26.544Z,38.90
2023-01-25T23:17:15.792Z,34.80
2023-01-25T23:19:42.534Z,33.97
2023-01-25T23:22:12.632Z,35.67
2023-01-25T23:24:40.541Z,40.30
2023-01-25T23:27:08.317Z,41.45
2023-01-25T23:29:37.103Z,36.08
2023-01-25T23:32:06.786Z,44.65
2023-01-25T23:34:40.173Z,42.28
2023-01-25T23:37:10.268Z,40.75
2023-01-25T23:39:38.229Z,43.60
2023-01-25T23:42:06.233Z,38.75
2023-01-25T23:44:33.894Z,39.35
2023-01-25T23:47:02.240Z,39.95
2023-01-25T23:49:31.287Z,39.92
2023-01-25T23:51:58.961Z,33.45
2023-01-25T23:54:27.085Z,34.95
2023-01-25T23:56:55.005Z,40.28
2023-01-25T23:59:23.007Z,42.53
